Aviation Digital Data Service (ADDS)

Output produced by METARs form (2051 UTC 01 March 2015)
found at http://aviationweather.gov/adds/metars/
 
KFKL 011730Z 0118/0218 21006KT 2SM -SN OVC009 
     TEMPO 0118/0121 1SM -SN OVC005 
     FM020300 27010KT 3SM -SN OVC010 
     FM020700 28010KT 6SM -SN OVC015 
     FM021300 28007KT P6SM OVC020 AMD LTD TO CLD VIS AND WIND